createdAt,value
2022-08-19T00:01:56.276Z,12.30
2022-08-19T00:04:28.635Z,12.30
2022-08-19T00:06:55.548Z,12.30
2022-08-19T00:09:24.166Z,12.10
2022-08-19T00:11:52.897Z,13.30
2022-08-19T00:14:21.218Z,12.60
2022-08-19T00:16:49.087Z,12.60
2022-08-19T00:19:16.972Z,11.50
2022-08-19T00:21:43.880Z,13.30
2022-08-19T00:24:13.631Z,11.10
2022-08-19T00:26:42.727Z,11.30
2022-08-19T00:29:13.179Z,12.00
2022-08-19T00:31:42.021Z,13.40
2022-08-19T00:34:09.927Z,13.70
2022-08-19T00:36:37.736Z,13.20
2022-08-19T00:39:04.673Z,13.90
2022-08-19T00:41:31.823Z,12.10
2022-08-19T00:44:12.929Z,11.10
2022-08-19T00:46:43.809Z,13.80
2022-08-19T00:49:21.775Z,12.20
2022-08-19T00:51:53.757Z,13.10
2022-08-19T00:54:26.548Z,13.50
2022-08-19T00:57:00.253Z,13.70
2022-08-19T00:59:58.798Z,13.70
2022-08-19T01:02:17.304Z,12.00
2022-08-19T01:04:44.189Z,14.40
2022-08-19T01:07:14.986Z,14.80
2022-08-19T01:09:45.232Z,11.50
2022-08-19T01:12:12.101Z,12.20
2022-08-19T01:14:40.738Z,12.10
2022-08-19T01:17:12.172Z,12.20
2022-08-19T01:19:43.380Z,13.20
2022-08-19T01:22:33.875Z,13.10
2022-08-19T01:25:02.314Z,12.90
2022-08-19T01:27:44.018Z,12.80
2022-08-19T01:30:35.116Z,14.10
2022-08-19T01:33:05.584Z,11.10
2022-08-19T01:35:32.992Z,11.80
2022-08-19T01:38:08.096Z,11.80
2022-08-19T01:40:40.697Z,13.30
2022-08-19T01:43:08.240Z,11.90
2022-08-19T01:45:36.340Z,11.60
2022-08-19T01:48:04.108Z,11.70
2022-08-19T01:50:33.095Z,11.90
2022-08-19T01:53:07.640Z,14.60
2022-08-19T01:55:42.080Z,13.30
2022-08-19T01:58:28.443Z,10.00
2022-08-19T02:00:58.436Z,11.20
2022-08-19T02:03:25.387Z,10.80
2022-08-19T02:05:59.902Z,11.30
2022-08-19T02:08:28.753Z,11.40
2022-08-19T02:10:56.991Z,12.10
2022-08-19T02:13:27.436Z,12.80
2022-08-19T02:15:54.608Z,10.30
2022-08-19T02:18:21.451Z,10.80
2022-08-19T02:20:55.619Z,12.10
2022-08-19T02:23:22.416Z,12.40
2022-08-19T02:25:49.405Z,11.90
2022-08-19T02:28:18.774Z,10.20
2022-08-19T02:30:48.157Z,11.20
2022-08-19T02:33:15.937Z,11.70
2022-08-19T02:35:47.450Z,11.50
2022-08-19T02:38:27.038Z,12.90
2022-08-19T02:41:06.022Z,14.80
2022-08-19T02:43:37.308Z,13.80
2022-08-19T02:46:21.637Z,14.00
2022-08-19T02:48:54.545Z,13.70
2022-08-19T02:53:51.429Z,13.60
2022-08-19T02:56:20.067Z,10.70
2022-08-19T02:58:48.800Z,12.70
2022-08-19T03:01:29.646Z,10.20
2022-08-19T03:03:59.652Z,12.70
2022-08-19T03:06:27.816Z,9.40
2022-08-19T03:08:55.857Z,10.90
2022-08-19T03:11:30.208Z,11.90
2022-08-19T03:13:58.915Z,11.20
2022-08-19T03:16:29.328Z,10.30
2022-08-19T03:19:02.042Z,9.30
2022-08-19T03:21:32.733Z,11.50
2022-08-19T03:24:07.401Z,11.30
2022-08-19T03:26:38.296Z,11.80
2022-08-19T03:29:06.593Z,11.10
2022-08-19T03:31:44.320Z,12.40
2022-08-19T03:34:18.490Z,13.00
2022-08-19T03:36:47.065Z,17.60
2022-08-19T03:39:15.041Z,15.70
2022-08-19T03:41:46.473Z,14.20
2022-08-19T03:44:20.968Z,13.60
2022-08-19T03:46:53.872Z,11.80
2022-08-19T03:51:58.304Z,14.50
2022-08-19T03:54:27.001Z,12.50
2022-08-19T03:56:56.308Z,12.70
2022-08-19T03:59:30.271Z,13.90
2022-08-19T04:01:59.957Z,12.20
2022-08-19T04:04:29.366Z,14.00
2022-08-19T04:06:57.202Z,12.70
2022-08-19T04:09:24.494Z,13.60
2022-08-19T04:11:55.240Z,12.50
2022-08-19T04:14:29.795Z,14.90
2022-08-19T04:16:56.811Z,13.30
2022-08-19T04:19:23.800Z,12.20
2022-08-19T04:21:53.280Z,15.30
2022-08-19T04:24:22.324Z,14.90
2022-08-19T04:26:49.812Z,15.40
2022-08-19T04:29:25.300Z,15.50
2022-08-19T04:31:54.982Z,14.20
2022-08-19T04:34:25.583Z,12.10
2022-08-19T04:36:56.064Z,16.80
2022-08-19T04:39:48.410Z,14.30
2022-08-19T04:42:37.035Z,12.80
2022-08-19T04:45:12.386Z,14.10
2022-08-19T04:47:48.253Z,13.60
2022-08-19T04:50:27.975Z,13.30
2022-08-19T04:52:56.534Z,16.10
2022-08-19T04:55:26.031Z,15.60
2022-08-19T04:57:54.961Z,13.20
2022-08-19T05:00:22.900Z,15.30
2022-08-19T05:02:49.863Z,15.80
2022-08-19T05:05:17.863Z,12.20
2022-08-19T05:07:44.914Z,12.00
2022-08-19T05:10:12.060Z,13.00
2022-08-19T05:12:39.556Z,15.20
2022-08-19T05:15:08.856Z,12.10
2022-08-19T05:17:38.852Z,14.30
2022-08-19T05:20:27.041Z,17.80
2022-08-19T05:22:54.306Z,14.70
2022-08-19T05:25:21.988Z,15.60
2022-08-19T05:27:49.784Z,15.10
2022-08-19T05:30:17.363Z,12.10
2022-08-19T05:32:44.185Z,14.70
2022-08-19T05:35:12.061Z,15.10
2022-08-19T05:37:42.872Z,13.20
2022-08-19T05:40:11.539Z,12.90
2022-08-19T05:42:38.711Z,15.00
2022-08-19T05:45:07.063Z,13.20
2022-08-19T05:47:33.891Z,12.90
2022-08-19T05:50:02.520Z,14.30
2022-08-19T05:52:29.580Z,15.10
2022-08-19T05:54:57.494Z,12.60
2022-08-19T05:57:25.274Z,15.00
2022-08-19T05:59:58.529Z,38.70
2022-08-19T06:02:28.071Z,46.30
2022-08-19T06:04:55.064Z,46.90
2022-08-19T06:07:22.943Z,49.70
2022-08-19T06:10:00.436Z,39.20
2022-08-19T06:12:34.537Z,46.90
2022-08-19T06:15:12.984Z,49.30
2022-08-19T06:17:40.157Z,50.40
2022-08-19T06:20:12.251Z,44.80
2022-08-19T06:22:40.718Z,25.70
2022-08-19T06:25:09.544Z,34.50
2022-08-19T06:27:42.050Z,26.30
2022-08-19T06:30:15.748Z,18.70
2022-08-19T06:32:43.091Z,16.90
2022-08-19T06:35:10.130Z,19.30
2022-08-19T06:37:40.859Z,19.70
2022-08-19T06:40:12.910Z,27.40
2022-08-19T06:42:40.016Z,28.20
2022-08-19T06:45:15.114Z,23.80
2022-08-19T06:47:46.496Z,26.00
2022-08-19T06:50:15.333Z,31.80
2022-08-19T06:52:42.219Z,31.40
2022-08-19T06:55:09.549Z,24.10
2022-08-19T06:57:36.573Z,28.20
2022-08-19T07:00:12.987Z,18.00
2022-08-19T07:02:48.025Z,19.10
2022-08-19T07:05:23.074Z,23.80
2022-08-19T07:07:50.943Z,23.70
2022-08-19T07:10:19.496Z,20.80
2022-08-19T07:12:46.956Z,21.90
2022-08-19T07:15:13.869Z,20.90
2022-08-19T07:17:42.001Z,22.20
2022-08-19T07:20:10.462Z,30.70
2022-08-19T07:22:39.542Z,17.70
2022-08-19T07:25:09.635Z,26.30
2022-08-19T07:27:37.545Z,24.20
2022-08-19T07:30:11.595Z,13.90
2022-08-19T07:35:09.338Z,14.90
2022-08-19T07:37:38.633Z,17.30
2022-08-19T07:40:08.294Z,14.10
2022-08-19T07:42:35.196Z,14.10
2022-08-19T07:45:02.298Z,14.70
2022-08-19T07:47:48.288Z,21.60
2022-08-19T07:50:19.714Z,24.00
2022-08-19T07:52:49.065Z,19.50
2022-08-19T07:55:41.655Z,15.70
2022-08-19T07:58:08.940Z,16.80
2022-08-19T08:00:36.899Z,13.10
2022-08-19T08:03:03.976Z,14.50
2022-08-19T08:05:49.996Z,9.80
2022-08-19T08:08:32.178Z,13.30
2022-08-19T08:11:00.867Z,11.50
2022-08-19T08:13:28.834Z,13.40
2022-08-19T08:15:57.636Z,13.30
2022-08-19T08:18:27.575Z,11.50
2022-08-19T08:20:56.604Z,14.40
2022-08-19T08:23:27.532Z,11.00
2022-08-19T08:25:58.464Z,11.40
2022-08-19T08:28:30.065Z,14.10
2022-08-19T08:30:58.456Z,11.70
2022-08-19T08:33:32.980Z,10.60
2022-08-19T08:36:16.167Z,11.20
2022-08-19T08:38:47.397Z,7.40
2022-08-19T08:41:31.069Z,7.70
2022-08-19T08:43:58.614Z,8.70
2022-08-19T08:46:46.113Z,7.80
2022-08-19T08:49:34.516Z,6.50
2022-08-19T08:52:10.334Z,8.20
2022-08-19T08:54:48.837Z,7.60
2022-08-19T08:57:53.907Z,6.70
2022-08-19T09:00:32.989Z,7.50
2022-08-19T09:03:04.004Z,8.30
2022-08-19T09:06:18.846Z,11.20
2022-08-19T09:09:04.504Z,11.50
2022-08-19T09:12:02.802Z,7.00
2022-08-19T09:14:50.813Z,10.20
2022-08-19T09:17:31.189Z,13.70
2022-08-19T09:20:11.728Z,9.70
2022-08-19T09:22:45.455Z,7.20
2022-08-19T09:25:24.606Z,9.90
2022-08-19T09:28:02.851Z,8.30
2022-08-19T09:30:37.709Z,10.50
2022-08-19T09:33:05.575Z,13.00
2022-08-19T09:35:49.646Z,7.50
2022-08-19T09:38:21.829Z,9.20
2022-08-19T09:40:49.967Z,12.60
2022-08-19T09:43:33.862Z,44.90
2022-08-19T09:46:06.688Z,17.20
2022-08-19T09:48:34.612Z,8.10
2022-08-19T09:51:16.556Z,6.90
2022-08-19T09:53:46.532Z,6.60
2022-08-19T09:56:14.197Z,5.70
2022-08-19T09:58:41.164Z,6.60
2022-08-19T10:01:09.057Z,5.60
2022-08-19T10:03:37.295Z,8.00
2022-08-19T10:06:05.756Z,6.00
2022-08-19T10:08:49.884Z,5.60
2022-08-19T10:11:27.765Z,6.40
2022-08-19T10:14:03.360Z,6.40
2022-08-19T10:16:30.530Z,6.40
2022-08-19T10:18:58.983Z,5.80
2022-08-19T10:21:32.016Z,5.50
2022-08-19T10:24:04.328Z,5.80
2022-08-19T10:29:05.896Z,5.30
2022-08-19T10:32:00.115Z,6.70
2022-08-19T10:34:28.053Z,7.40
2022-08-19T10:37:01.295Z,6.50
2022-08-19T10:39:32.696Z,7.10
2022-08-19T10:42:13.449Z,7.70
2022-08-19T10:44:41.297Z,6.90
2022-08-19T10:47:17.901Z,5.80
2022-08-19T10:50:14.040Z,7.10
2022-08-19T10:52:48.912Z,5.50
2022-08-19T10:55:42.527Z,5.50
2022-08-19T10:58:16.166Z,6.20
2022-08-19T11:00:44.094Z,7.30
2022-08-19T11:03:11.589Z,7.40
2022-08-19T11:05:40.075Z,4.90
2022-08-19T11:08:22.228Z,5.90
2022-08-19T11:11:00.870Z,6.80
2022-08-19T11:13:36.134Z,7.20
2022-08-19T11:16:26.502Z,8.00
2022-08-19T11:18:58.712Z,6.00
2022-08-19T11:21:33.968Z,8.00
2022-08-19T11:24:07.024Z,6.10
2022-08-19T11:26:36.271Z,8.50
2022-08-19T11:29:04.722Z,5.40
2022-08-19T11:31:35.842Z,6.90
2022-08-19T11:34:07.345Z,5.70
2022-08-19T11:36:38.763Z,6.70
2022-08-19T11:39:08.164Z,5.20
2022-08-19T11:41:35.140Z,5.90
2022-08-19T11:44:04.810Z,5.40
2022-08-19T11:46:32.282Z,5.10
2022-08-19T11:49:01.032Z,6.90
2022-08-19T11:51:30.108Z,5.60
2022-08-19T11:53:59.377Z,5.90
2022-08-19T11:56:28.068Z,7.40
2022-08-19T11:58:57.220Z,7.70
2022-08-19T12:01:26.156Z,7.60
2022-08-19T12:03:56.283Z,5.20
2022-08-19T12:06:34.556Z,6.50
2022-08-19T12:09:06.435Z,5.20
2022-08-19T12:11:34.584Z,4.70
2022-08-19T12:14:01.729Z,7.70
2022-08-19T12:16:31.033Z,6.60
2022-08-19T12:19:04.229Z,5.60
2022-08-19T12:21:35.307Z,5.40
2022-08-19T12:24:05.492Z,12.20
2022-08-19T12:26:33.727Z,5.40
2022-08-19T12:29:23.334Z,5.60
2022-08-19T12:31:52.024Z,5.30
2022-08-19T12:34:20.460Z,7.40
2022-08-19T12:36:49.496Z,6.40
2022-08-19T12:39:16.402Z,6.60
2022-08-19T12:41:54.282Z,5.80
2022-08-19T12:44:29.495Z,7.50
2022-08-19T12:46:59.776Z,5.80
2022-08-19T12:49:54.290Z,8.10
2022-08-19T12:52:17.116Z,10.20
2022-08-19T12:54:54.612Z,5.30
2022-08-19T12:57:31.866Z,8.30
2022-08-19T13:00:21.432Z,5.90
2022-08-19T13:02:52.108Z,5.60
2022-08-19T13:05:23.341Z,4.90
2022-08-19T13:07:56.466Z,5.30
2022-08-19T13:10:28.140Z,4.60
2022-08-19T13:12:55.873Z,7.90
2022-08-19T13:15:24.474Z,4.70
2022-08-19T13:17:54.077Z,6.80
2022-08-19T13:20:22.482Z,7.30
2022-08-19T13:22:49.650Z,7.50
2022-08-19T13:25:17.912Z,4.90
2022-08-19T13:27:44.828Z,5.40
2022-08-19T13:30:33.567Z,6.60
2022-08-19T13:33:12.519Z,7.30
2022-08-19T13:35:50.616Z,7.90
2022-08-19T13:38:21.358Z,11.60
2022-08-19T13:40:52.242Z,10.20
2022-08-19T13:43:24.638Z,6.00
2022-08-19T13:48:25.647Z,8.50
2022-08-19T13:50:52.513Z,6.50
2022-08-19T13:53:19.370Z,6.70
2022-08-19T13:55:46.888Z,6.60
2022-08-19T13:58:14.876Z,4.50
2022-08-19T14:00:45.802Z,6.40
2022-08-19T14:03:12.701Z,10.70
2022-08-19T14:05:40.054Z,4.90
2022-08-19T14:08:07.623Z,5.90
2022-08-19T14:10:34.482Z,4.80
2022-08-19T14:13:03.979Z,7.20
2022-08-19T14:15:31.915Z,5.80
2022-08-19T14:17:59.079Z,4.70
2022-08-19T14:20:26.952Z,4.70
2022-08-19T14:22:55.071Z,5.10
2022-08-19T14:25:27.202Z,8.70
2022-08-19T14:27:55.372Z,16.50
2022-08-19T14:30:31.944Z,9.60
2022-08-19T14:33:01.867Z,6.80
2022-08-19T14:35:30.688Z,4.80
2022-08-19T14:37:58.541Z,5.70
2022-08-19T14:40:29.798Z,5.30
2022-08-19T14:43:04.131Z,6.60
2022-08-19T14:45:36.698Z,5.60
2022-08-19T14:48:08.829Z,7.10
2022-08-19T14:50:45.900Z,5.40
2022-08-19T14:53:13.479Z,5.10
2022-08-19T14:55:45.749Z,6.10
2022-08-19T14:58:28.817Z,4.20
2022-08-19T15:01:00.060Z,5.70
2022-08-19T15:03:28.764Z,5.00
2022-08-19T15:05:57.735Z,7.10
2022-08-19T15:08:25.331Z,6.30
2022-08-19T15:10:53.447Z,5.70
2022-08-19T15:13:20.753Z,4.90
2022-08-19T15:15:48.676Z,4.70
2022-08-19T15:18:15.501Z,6.90
2022-08-19T15:20:43.824Z,3.90
2022-08-19T15:23:18.580Z,4.30
2022-08-19T15:25:46.036Z,4.20
2022-08-19T15:28:13.462Z,5.80
2022-08-19T15:30:40.828Z,7.00
2022-08-19T15:33:08.271Z,8.80
2022-08-19T15:35:35.324Z,7.20
2022-08-19T15:38:02.346Z,13.80
2022-08-19T15:40:29.329Z,11.80
2022-08-19T15:42:56.433Z,14.60
2022-08-19T15:45:32.416Z,12.10
2022-08-19T15:48:02.259Z,12.10
2022-08-19T15:50:33.381Z,8.20
2022-08-19T15:53:05.464Z,5.30
2022-08-19T15:55:36.352Z,4.20
2022-08-19T15:58:30.013Z,7.60
2022-08-19T16:01:24.360Z,3.80
2022-08-19T16:04:15.656Z,8.60
2022-08-19T16:06:56.098Z,5.00
2022-08-19T16:09:28.527Z,10.70
2022-08-19T16:12:04.519Z,7.70
2022-08-19T16:14:34.657Z,7.20
2022-08-19T16:17:01.892Z,10.90
2022-08-19T16:19:28.794Z,7.50
2022-08-19T16:21:56.545Z,6.10
2022-08-19T16:24:27.348Z,8.60
2022-08-19T16:26:55.524Z,8.00
2022-08-19T16:29:34.124Z,7.30
2022-08-19T16:32:10.250Z,9.80
2022-08-19T16:34:41.869Z,6.70
2022-08-19T16:37:10.024Z,6.70
2022-08-19T16:39:38.250Z,9.60
2022-08-19T16:42:07.620Z,8.60
2022-08-19T16:44:38.672Z,6.50
2022-08-19T16:47:05.836Z,9.10
2022-08-19T16:49:53.241Z,11.00
2022-08-19T16:52:20.551Z,9.90
2022-08-19T16:54:47.900Z,11.80
2022-08-19T16:57:16.264Z,10.70
2022-08-19T16:59:48.504Z,11.70
2022-08-19T17:02:20.581Z,8.90
2022-08-19T17:04:57.344Z,7.10
2022-08-19T17:07:33.089Z,7.30
2022-08-19T17:10:04.403Z,6.70
2022-08-19T17:12:32.218Z,8.40
2022-08-19T17:15:04.675Z,11.10
2022-08-19T17:17:31.603Z,17.80
2022-08-19T17:20:00.783Z,8.90
2022-08-19T17:22:27.844Z,9.40
2022-08-19T17:24:56.224Z,11.10
2022-08-19T17:27:31.517Z,9.60
2022-08-19T17:30:02.285Z,11.50
2022-08-19T17:32:34.362Z,12.60
2022-08-19T17:35:03.953Z,10.30
2022-08-19T17:37:31.352Z,9.30
2022-08-19T17:39:58.382Z,6.40
2022-08-19T17:42:25.908Z,8.60
2022-08-19T17:44:52.741Z,11.00
2022-08-19T17:47:20.534Z,8.60
2022-08-19T17:49:47.779Z,8.60
2022-08-19T17:52:14.596Z,9.70
2022-08-19T17:54:41.502Z,14.00
2022-08-19T17:57:09.028Z,13.40
2022-08-19T17:59:36.899Z,14.00
2022-08-19T18:02:07.033Z,17.30
2022-08-19T18:04:38.399Z,18.70
2022-08-19T18:07:05.847Z,18.60
2022-08-19T18:09:41.694Z,23.30
2022-08-19T18:12:13.251Z,13.90
2022-08-19T18:14:41.203Z,24.20
2022-08-19T18:17:11.776Z,16.60
2022-08-19T18:19:43.302Z,20.00
2022-08-19T18:24:46.654Z,19.50
2022-08-19T18:27:14.093Z,14.90
2022-08-19T18:29:41.171Z,14.00
2022-08-19T18:32:14.546Z,13.70
2022-08-19T18:34:43.203Z,11.50
2022-08-19T18:37:11.616Z,14.30
2022-08-19T18:39:57.337Z,11.90
2022-08-19T18:42:43.645Z,10.20
2022-08-19T18:45:29.646Z,11.40
2022-08-19T18:48:26.987Z,11.00
2022-08-19T18:51:00.482Z,15.10
2022-08-19T18:53:31.639Z,8.50
2022-08-19T18:55:59.107Z,8.00
2022-08-19T18:58:32.571Z,10.80
2022-08-19T19:01:25.743Z,8.70
2022-08-19T19:03:54.733Z,11.40
2022-08-19T19:06:29.900Z,10.10
2022-08-19T19:08:57.568Z,13.80
2022-08-19T19:11:33.239Z,11.70
2022-08-19T19:14:03.058Z,11.00
2022-08-19T19:16:31.192Z,9.90
2022-08-19T19:18:58.705Z,13.40
2022-08-19T19:21:26.937Z,10.80
2022-08-19T19:23:55.464Z,11.00
2022-08-19T19:26:22.712Z,13.00
2022-08-19T19:28:50.858Z,14.30
2022-08-19T19:31:22.663Z,11.80
2022-08-19T19:33:49.819Z,9.30
2022-08-19T19:36:17.848Z,9.30
2022-08-19T19:38:48.676Z,11.20
2022-08-19T19:41:23.873Z,11.80
2022-08-19T19:44:30.145Z,12.20
2022-08-19T19:46:47.604Z,12.10
2022-08-19T19:49:14.585Z,10.90
2022-08-19T19:51:43.484Z,10.00
2022-08-19T19:54:13.149Z,10.30
2022-08-19T19:56:44.822Z,8.70
2022-08-19T19:59:12.058Z,10.70
2022-08-19T20:01:40.079Z,9.40
2022-08-19T20:04:16.259Z,12.00
2022-08-19T20:06:45.686Z,11.80
2022-08-19T20:09:19.295Z,10.60
2022-08-19T20:11:55.828Z,9.00
2022-08-19T20:14:32.848Z,10.30
2022-08-19T20:17:00.088Z,13.40
2022-08-19T20:19:33.613Z,11.00
2022-08-19T20:22:00.757Z,10.50
2022-08-19T20:24:34.675Z,10.20
2022-08-19T20:27:03.520Z,11.70
2022-08-19T20:29:39.468Z,9.20
2022-08-19T20:32:10.092Z,11.60
2022-08-19T20:34:38.571Z,10.10
2022-08-19T20:37:08.444Z,8.70
2022-08-19T20:39:35.317Z,11.60
2022-08-19T20:42:03.098Z,9.00
2022-08-19T20:44:30.042Z,9.00
2022-08-19T20:47:00.505Z,10.40
2022-08-19T20:49:30.011Z,11.50
2022-08-19T20:51:57.714Z,10.90
2022-08-19T20:54:25.420Z,9.80
2022-08-19T20:56:53.316Z,9.90
2022-08-19T20:59:21.372Z,9.30
2022-08-19T21:01:51.205Z,9.40
2022-08-19T21:04:20.614Z,8.10
2022-08-19T21:06:49.157Z,8.40
2022-08-19T21:09:16.052Z,12.50
2022-08-19T21:11:43.520Z,9.70
2022-08-19T21:14:10.575Z,8.90
2022-08-19T21:16:37.468Z,10.10
2022-08-19T21:19:04.421Z,11.90
2022-08-19T21:21:32.617Z,11.20
2022-08-19T21:23:59.479Z,9.00
2022-08-19T21:26:27.475Z,10.30
2022-08-19T21:28:54.268Z,9.80
2022-08-19T21:31:21.599Z,8.30
2022-08-19T21:33:48.431Z,9.20
2022-08-19T21:36:15.274Z,10.50
2022-08-19T21:38:42.323Z,9.20
2022-08-19T21:41:09.153Z,9.10
2022-08-19T21:43:37.365Z,10.50
2022-08-19T21:46:05.412Z,9.50
2022-08-19T21:48:32.412Z,11.80
2022-08-19T21:50:59.240Z,10.40
2022-08-19T21:53:31.671Z,10.50
2022-08-19T21:56:05.944Z,11.50
2022-08-19T21:58:33.572Z,10.20
2022-08-19T22:01:05.139Z,9.90
2022-08-19T22:03:36.714Z,12.60
2022-08-19T22:06:04.328Z,11.80
2022-08-19T22:08:31.589Z,11.40
2022-08-19T22:11:01.284Z,9.30
2022-08-19T22:13:35.925Z,11.70
2022-08-19T22:16:07.735Z,10.60
2022-08-19T22:18:34.800Z,10.30
2022-08-19T22:21:04.520Z,9.50
2022-08-19T22:23:33.257Z,8.90
2022-08-19T22:26:00.629Z,12.30
2022-08-19T22:28:28.002Z,10.00
2022-08-19T22:30:55.460Z,11.90
2022-08-19T22:33:25.218Z,11.50
2022-08-19T22:35:52.977Z,9.20
2022-08-19T22:38:19.824Z,11.70
2022-08-19T22:40:50.573Z,9.40
2022-08-19T22:43:25.721Z,8.90
2022-08-19T22:45:55.417Z,9.70
2022-08-19T22:48:26.546Z,13.40
2022-08-19T22:51:13.250Z,10.40
2022-08-19T22:53:45.980Z,9.10
2022-08-19T22:58:43.459Z,11.00
2022-08-19T23:01:24.842Z,10.90
2022-08-19T23:03:59.244Z,11.10
2022-08-19T23:06:33.856Z,8.90
2022-08-19T23:09:06.092Z,10.90
2022-08-19T23:14:11.948Z,10.40
2022-08-19T23:16:41.623Z,10.40
2022-08-19T23:19:09.564Z,11.30
2022-08-19T23:21:41.572Z,10.90
2022-08-19T23:24:10.451Z,12.50
2022-08-19T23:26:37.945Z,11.80
2022-08-19T23:29:24.283Z,13.70
2022-08-19T23:31:51.367Z,12.30
2022-08-19T23:34:18.239Z,14.60
2022-08-19T23:36:45.692Z,14.00
2022-08-19T23:39:12.533Z,12.70
2022-08-19T23:41:39.344Z,12.80
2022-08-19T23:44:06.196Z,13.60
2022-08-19T23:46:54.455Z,14.80
2022-08-19T23:49:24.498Z,12.70
2022-08-19T23:51:53.680Z,15.50
2022-08-19T23:54:21.065Z,12.00
2022-08-19T23:56:47.922Z,10.50
2022-08-19T23:59:15.373Z,14.60
